sensor_id;sensor_type;location;lat;lon;timestamp;temperature;humidity
35085;SHT85;21267;51.032;6.998;2023-10-09T00:01:39;14.59;96.54
35085;SHT85;21267;51.032;6.998;2023-10-09T00:04:06;14.54;96.40
35085;SHT85;21267;51.032;6.998;2023-10-09T00:06:38;14.56;96.38
35085;SHT85;21267;51.032;6.998;2023-10-09T00:09:05;14.56;96.38
35085;SHT85;21267;51.032;6.998;2023-10-09T00:12:04;14.59;96.17
35085;SHT85;21267;51.032;6.998;2023-10-09T00:14:37;14.56;96.10
35085;SHT85;21267;51.032;6.998;2023-10-09T00:17:06;14.61;95.96
35085;SHT85;21267;51.032;6.998;2023-10-09T00:19:38;14.63;95.90
35085;SHT85;21267;51.032;6.998;2023-10-09T00:22:05;14.57;95.86
35085;SHT85;21267;51.032;6.998;2023-10-09T00:24:37;14.57;95.77
35085;SHT85;21267;51.032;6.998;2023-10-09T00:27:11;14.47;95.97
35085;SHT85;21267;51.032;6.998;2023-10-09T00:29:40;14.38;96.07
35085;SHT85;21267;51.032;6.998;2023-10-09T00:32:16;14.29;96.12
35085;SHT85;21267;51.032;6.998;2023-10-09T00:34:50;14.33;96.18
35085;SHT85;21267;51.032;6.998;2023-10-09T00:37:17;14.12;96.48
35085;SHT85;21267;51.032;6.998;2023-10-09T00:40:00;14.25;96.46
35085;SHT85;21267;51.032;6.998;2023-10-09T00:42:39;14.25;96.41
35085;SHT85;21267;51.032;6.998;2023-10-09T00:45:06;14.26;96.16
35085;SHT85;21267;51.032;6.998;2023-10-09T00:47:39;14.16;96.24
35085;SHT85;21267;51.032;6.998;2023-10-09T00:50:08;14.05;96.38
35085;SHT85;21267;51.032;6.998;2023-10-09T00:52:44;13.98;96.17
35085;SHT85;21267;51.032;6.998;2023-10-09T00:55:19;13.94;96.62
35085;SHT85;21267;51.032;6.998;2023-10-09T00:58:03;13.99;96.33
35085;SHT85;21267;51.032;6.998;2023-10-09T01:00:36;13.98;96.49
35085;SHT85;21267;51.032;6.998;2023-10-09T01:03:17;14.05;96.49
35085;SHT85;21267;51.032;6.998;2023-10-09T01:05:53;13.98;96.51
35085;SHT85;21267;51.032;6.998;2023-10-09T01:08:42;14.04;96.55
35085;SHT85;21267;51.032;6.998;2023-10-09T01:13:37;13.99;96.33
35085;SHT85;21267;51.032;6.998;2023-10-09T01:16:22;14.02;96.28
35085;SHT85;21267;51.032;6.998;2023-10-09T01:18:54;14.04;96.25
35085;SHT85;21267;51.032;6.998;2023-10-09T01:21:24;14.10;96.24
35085;SHT85;21267;51.032;6.998;2023-10-09T01:23:54;14.04;96.19
35085;SHT85;21267;51.032;6.998;2023-10-09T01:26:40;14.04;96.07
35085;SHT85;21267;51.032;6.998;2023-10-09T01:29:14;13.99;96.00
35085;SHT85;21267;51.032;6.998;2023-10-09T01:31:47;14.02;96.07
35085;SHT85;21267;51.032;6.998;2023-10-09T01:34:33;13.96;96.05
35085;SHT85;21267;51.032;6.998;2023-10-09T01:37:12;14.01;95.95
35085;SHT85;21267;51.032;6.998;2023-10-09T01:39:47;14.05;95.89
35085;SHT85;21267;51.032;6.998;2023-10-09T01:42:15;14.09;95.70
35085;SHT85;21267;51.032;6.998;2023-10-09T01:45:02;14.06;95.69
35085;SHT85;21267;51.032;6.998;2023-10-09T01:47:47;13.96;96.11
35085;SHT85;21267;51.032;6.998;2023-10-09T01:50:24;13.95;96.19
35085;SHT85;21267;51.032;6.998;2023-10-09T01:52:58;14.05;96.11
35085;SHT85;21267;51.032;6.998;2023-10-09T01:55:30;14.06;95.90
35085;SHT85;21267;51.032;6.998;2023-10-09T01:58:04;14.13;95.90
35085;SHT85;21267;51.032;6.998;2023-10-09T02:00:46;14.23;95.46
35085;SHT85;21267;51.032;6.998;2023-10-09T02:03:22;14.09;95.68
35085;SHT85;21267;51.032;6.998;2023-10-09T02:05:53;14.20;95.54
35085;SHT85;21267;51.032;6.998;2023-10-09T02:08:26;14.20;95.34
35085;SHT85;21267;51.032;6.998;2023-10-09T02:11:02;14.29;95.07
35085;SHT85;21267;51.032;6.998;2023-10-09T02:13:29;14.10;95.37
35085;SHT85;21267;51.032;6.998;2023-10-09T02:15:57;14.09;95.74
35085;SHT85;21267;51.032;6.998;2023-10-09T02:18:40;14.32;95.35
35085;SHT85;21267;51.032;6.998;2023-10-09T02:21:20;14.16;95.47
35085;SHT85;21267;51.032;6.998;2023-10-09T02:24:16;14.30;95.02
35085;SHT85;21267;51.032;6.998;2023-10-09T02:27:03;14.30;95.06
35085;SHT85;21267;51.032;6.998;2023-10-09T02:29:33;14.29;95.14
35085;SHT85;21267;51.032;6.998;2023-10-09T02:32:05;14.36;94.89
35085;SHT85;21267;51.032;6.998;2023-10-09T02:34:41;14.41;94.80
35085;SHT85;21267;51.032;6.998;2023-10-09T02:37:13;14.33;94.87
35085;SHT85;21267;51.032;6.998;2023-10-09T02:39:40;14.25;95.02
35085;SHT85;21267;51.032;6.998;2023-10-09T02:42:15;14.34;94.75
35085;SHT85;21267;51.032;6.998;2023-10-09T02:44:41;14.38;94.97
35085;SHT85;21267;51.032;6.998;2023-10-09T02:47:20;14.36;94.63
35085;SHT85;21267;51.032;6.998;2023-10-09T02:50:05;14.37;94.65
35085;SHT85;21267;51.032;6.998;2023-10-09T02:52:47;14.44;94.46
35085;SHT85;21267;51.032;6.998;2023-10-09T02:55:14;14.46;94.46
35085;SHT85;21267;51.032;6.998;2023-10-09T02:57:50;14.41;94.32
35085;SHT85;21267;51.032;6.998;2023-10-09T03:00:31;14.33;94.76
35085;SHT85;21267;51.032;6.998;2023-10-09T03:02:59;14.36;94.46
35085;SHT85;21267;51.032;6.998;2023-10-09T03:05:26;14.26;94.77
35085;SHT85;21267;51.032;6.998;2023-10-09T03:07:56;14.29;94.87
35085;SHT85;21267;51.032;6.998;2023-10-09T03:10:23;14.37;94.69
35085;SHT85;21267;51.032;6.998;2023-10-09T03:12:52;14.19;95.03
35085;SHT85;21267;51.032;6.998;2023-10-09T03:15:20;14.20;95.01
35085;SHT85;21267;51.032;6.998;2023-10-09T03:17:47;14.34;94.77
35085;SHT85;21267;51.032;6.998;2023-10-09T03:20:15;14.20;94.85
35085;SHT85;21267;51.032;6.998;2023-10-09T03:22:44;14.27;94.78
35085;SHT85;21267;51.032;6.998;2023-10-09T03:25:12;14.27;94.86
35085;SHT85;21267;51.032;6.998;2023-10-09T03:27:40;14.43;94.42
35085;SHT85;21267;51.032;6.998;2023-10-09T03:30:16;14.34;94.38
35085;SHT85;21267;51.032;6.998;2023-10-09T03:32:50;14.27;94.54
35085;SHT85;21267;51.032;6.998;2023-10-09T03:35:22;14.38;94.21
35085;SHT85;21267;51.032;6.998;2023-10-09T03:37:57;14.29;94.70
35085;SHT85;21267;51.032;6.998;2023-10-09T03:40:27;14.38;94.25
35085;SHT85;21267;51.032;6.998;2023-10-09T03:42:54;14.36;94.35
35085;SHT85;21267;51.032;6.998;2023-10-09T03:45:21;14.32;94.23
35085;SHT85;21267;51.032;6.998;2023-10-09T03:47:55;14.29;94.26
35085;SHT85;21267;51.032;6.998;2023-10-09T03:50:29;14.30;94.37
35085;SHT85;21267;51.032;6.998;2023-10-09T03:53:05;14.32;94.44
35085;SHT85;21267;51.032;6.998;2023-10-09T03:55:35;14.36;94.39
35085;SHT85;21267;51.032;6.998;2023-10-09T03:58:07;14.32;94.41
35085;SHT85;21267;51.032;6.998;2023-10-09T04:00:35;14.36;94.33
35085;SHT85;21267;51.032;6.998;2023-10-09T04:03:13;14.38;94.22
35085;SHT85;21267;51.032;6.998;2023-10-09T04:05:42;14.33;94.24
35085;SHT85;21267;51.032;6.998;2023-10-09T04:08:10;14.30;94.44
35085;SHT85;21267;51.032;6.998;2023-10-09T04:10:46;14.37;94.29
35085;SHT85;21267;51.032;6.998;2023-10-09T04:13:24;14.34;94.33
35085;SHT85;21267;51.032;6.998;2023-10-09T04:16:03;14.38;94.29
35085;SHT85;21267;51.032;6.998;2023-10-09T04:18:38;14.37;94.43
35085;SHT85;21267;51.032;6.998;2023-10-09T04:21:06;14.32;94.56
35085;SHT85;21267;51.032;6.998;2023-10-09T04:23:46;14.40;94.59
35085;SHT85;21267;51.032;6.998;2023-10-09T04:26:31;14.34;94.58
35085;SHT85;21267;51.032;6.998;2023-10-09T04:29:01;14.34;94.54
35085;SHT85;21267;51.032;6.998;2023-10-09T04:31:29;14.40;94.48
35085;SHT85;21267;51.032;6.998;2023-10-09T04:34:04;14.41;94.56
35085;SHT85;21267;51.032;6.998;2023-10-09T04:36:50;14.37;94.61
35085;SHT85;21267;51.032;6.998;2023-10-09T04:39:23;14.37;94.34
35085;SHT85;21267;51.032;6.998;2023-10-09T04:42:04;14.34;94.29
35085;SHT85;21267;51.032;6.998;2023-10-09T04:44:53;14.40;94.46
35085;SHT85;21267;51.032;6.998;2023-10-09T04:47:32;14.38;94.39
35085;SHT85;21267;51.032;6.998;2023-10-09T04:50:16;14.40;94.52
35085;SHT85;21267;51.032;6.998;2023-10-09T04:52:45;14.25;94.95
35085;SHT85;21267;51.032;6.998;2023-10-09T04:55:18;14.32;94.87
35085;SHT85;21267;51.032;6.998;2023-10-09T04:57:51;14.33;94.78
35085;SHT85;21267;51.032;6.998;2023-10-09T05:00:28;14.41;94.59
35085;SHT85;21267;51.032;6.998;2023-10-09T05:05:23;14.44;94.48
35085;SHT85;21267;51.032;6.998;2023-10-09T05:08:12;14.38;94.53
35085;SHT85;21267;51.032;6.998;2023-10-09T05:11:03;14.33;94.71
35085;SHT85;21267;51.032;6.998;2023-10-09T05:13:30;14.36;94.97
35085;SHT85;21267;51.032;6.998;2023-10-09T05:18:50;14.37;94.88
35085;SHT85;21267;51.032;6.998;2023-10-09T05:21:26;14.38;94.60
35085;SHT85;21267;51.032;6.998;2023-10-09T05:24:00;14.29;94.93
35085;SHT85;21267;51.032;6.998;2023-10-09T05:26:48;14.41;94.60
35085;SHT85;21267;51.032;6.998;2023-10-09T05:29:23;14.40;94.50
35085;SHT85;21267;51.032;6.998;2023-10-09T05:32:04;14.36;94.51
35085;SHT85;21267;51.032;6.998;2023-10-09T05:34:44;14.33;94.57
35085;SHT85;21267;51.032;6.998;2023-10-09T05:37:27;14.33;94.65
35085;SHT85;21267;51.032;6.998;2023-10-09T05:40:04;14.32;94.69
35085;SHT85;21267;51.032;6.998;2023-10-09T05:42:45;14.29;94.81
35085;SHT85;21267;51.032;6.998;2023-10-09T05:45:13;14.23;94.87
35085;SHT85;21267;51.032;6.998;2023-10-09T05:47:47;14.23;95.01
35085;SHT85;21267;51.032;6.998;2023-10-09T05:50:21;14.27;94.94
35085;SHT85;21267;51.032;6.998;2023-10-09T05:52:51;14.23;94.93
35085;SHT85;21267;51.032;6.998;2023-10-09T05:55:22;14.27;95.20
35085;SHT85;21267;51.032;6.998;2023-10-09T05:57:55;14.26;95.21
35085;SHT85;21267;51.032;6.998;2023-10-09T06:00:25;14.30;95.03
35085;SHT85;21267;51.032;6.998;2023-10-09T06:03:11;14.43;94.59
35085;SHT85;21267;51.032;6.998;2023-10-09T06:05:59;14.40;94.49
35085;SHT85;21267;51.032;6.998;2023-10-09T06:08:28;14.49;94.49
35085;SHT85;21267;51.032;6.998;2023-10-09T06:11:11;14.54;94.33
35085;SHT85;21267;51.032;6.998;2023-10-09T06:14:00;14.41;94.51
35085;SHT85;21267;51.032;6.998;2023-10-09T06:16:31;14.47;94.46
35085;SHT85;21267;51.032;6.998;2023-10-09T06:19:09;14.56;94.52
35085;SHT85;21267;51.032;6.998;2023-10-09T06:21:56;14.53;94.38
35085;SHT85;21267;51.032;6.998;2023-10-09T06:24:30;14.64;94.20
35085;SHT85;21267;51.032;6.998;2023-10-09T06:27:12;14.66;94.26
35085;SHT85;21267;51.032;6.998;2023-10-09T06:33:38;14.87;93.48
35085;SHT85;21267;51.032;6.998;2023-10-09T06:36:25;14.91;93.36
35085;SHT85;21267;51.032;6.998;2023-10-09T06:38:58;14.98;93.44
35085;SHT85;21267;51.032;6.998;2023-10-09T06:41:43;14.96;93.30
35085;SHT85;21267;51.032;6.998;2023-10-09T06:44:11;14.99;93.26
35085;SHT85;21267;51.032;6.998;2023-10-09T06:46:58;15.11;93.18
35085;SHT85;21267;51.032;6.998;2023-10-09T06:49:34;15.19;92.84
35085;SHT85;21267;51.032;6.998;2023-10-09T06:52:03;15.25;92.74
35085;SHT85;21267;51.032;6.998;2023-10-09T06:54:42;15.25;92.70
35085;SHT85;21267;51.032;6.998;2023-10-09T06:57:17;15.43;92.67
35085;SHT85;21267;51.032;6.998;2023-10-09T07:00:04;15.40;92.28
35085;SHT85;21267;51.032;6.998;2023-10-09T07:02:57;15.60;92.17
35085;SHT85;21267;51.032;6.998;2023-10-09T07:05:24;15.63;92.31
35085;SHT85;21267;51.032;6.998;2023-10-09T07:08:03;15.45;92.79
35085;SHT85;21267;51.032;6.998;2023-10-09T07:10:50;15.50;92.14
35085;SHT85;21267;51.032;6.998;2023-10-09T07:13:29;15.63;92.12
35085;SHT85;21267;51.032;6.998;2023-10-09T07:15:56;15.66;91.79
35085;SHT85;21267;51.032;6.998;2023-10-09T07:18:50;15.71;91.49
35085;SHT85;21267;51.032;6.998;2023-10-09T07:21:21;15.74;91.50
35085;SHT85;21267;51.032;6.998;2023-10-09T07:23:55;15.83;91.37
35085;SHT85;21267;51.032;6.998;2023-10-09T07:26:24;15.83;91.49
35085;SHT85;21267;51.032;6.998;2023-10-09T07:29:04;15.97;91.20
35085;SHT85;21267;51.032;6.998;2023-10-09T07:31:43;16.00;90.99
35085;SHT85;21267;51.032;6.998;2023-10-09T07:34:14;16.17;90.85
35085;SHT85;21267;51.032;6.998;2023-10-09T07:37:23;16.34;90.14
35085;SHT85;21267;51.032;6.998;2023-10-09T07:39:50;16.45;89.87
35085;SHT85;21267;51.032;6.998;2023-10-09T07:42:25;16.79;89.13
35085;SHT85;21267;51.032;6.998;2023-10-09T07:45:07;17.14;87.81
35085;SHT85;21267;51.032;6.998;2023-10-09T07:47:47;17.28;87.21
35085;SHT85;21267;51.032;6.998;2023-10-09T07:50:27;17.57;86.13
35085;SHT85;21267;51.032;6.998;2023-10-09T07:53:08;17.58;85.41
35085;SHT85;21267;51.032;6.998;2023-10-09T07:55:53;17.45;85.75
35085;SHT85;21267;51.032;6.998;2023-10-09T07:58:33;17.54;85.29
35085;SHT85;21267;51.032;6.998;2023-10-09T08:01:15;17.57;84.95
35085;SHT85;21267;51.032;6.998;2023-10-09T08:03:43;17.50;85.60
35085;SHT85;21267;51.032;6.998;2023-10-09T08:06:16;17.54;85.07
35085;SHT85;21267;51.032;6.998;2023-10-09T08:09:01;17.57;85.29
35085;SHT85;21267;51.032;6.998;2023-10-09T08:11:49;17.63;84.89
35085;SHT85;21267;51.032;6.998;2023-10-09T08:14:41;17.59;84.90
35085;SHT85;21267;51.032;6.998;2023-10-09T08:17:09;17.59;85.05
35085;SHT85;21267;51.032;6.998;2023-10-09T08:19:50;17.62;84.61
35085;SHT85;21267;51.032;6.998;2023-10-09T08:22:24;17.76;84.26
35085;SHT85;21267;51.032;6.998;2023-10-09T08:24:52;17.91;83.88
35085;SHT85;21267;51.032;6.998;2023-10-09T08:30:04;17.87;83.39
35085;SHT85;21267;51.032;6.998;2023-10-09T08:32:50;17.96;83.05
35085;SHT85;21267;51.032;6.998;2023-10-09T08:35:34;18.00;83.14
35085;SHT85;21267;51.032;6.998;2023-10-09T08:38:17;18.02;83.23
35085;SHT85;21267;51.032;6.998;2023-10-09T08:40:51;18.05;83.57
35085;SHT85;21267;51.032;6.998;2023-10-09T08:43:25;17.99;83.88
35085;SHT85;21267;51.032;6.998;2023-10-09T08:45:58;18.19;82.90
35085;SHT85;21267;51.032;6.998;2023-10-09T08:48:30;18.40;82.27
35085;SHT85;21267;51.032;6.998;2023-10-09T08:50:57;18.61;81.74
35085;SHT85;21267;51.032;6.998;2023-10-09T08:53:24;18.87;81.45
35085;SHT85;21267;51.032;6.998;2023-10-09T08:55:54;18.98;80.83
35085;SHT85;21267;51.032;6.998;2023-10-09T08:58:23;19.10;80.67
35085;SHT85;21267;51.032;6.998;2023-10-09T09:00:59;19.33;80.28
35085;SHT85;21267;51.032;6.998;2023-10-09T09:03:40;19.13;80.05
35085;SHT85;21267;51.032;6.998;2023-10-09T09:06:11;19.10;80.27
35085;SHT85;21267;51.032;6.998;2023-10-09T09:08:41;19.06;80.58
35085;SHT85;21267;51.032;6.998;2023-10-09T09:11:16;18.88;80.47
35085;SHT85;21267;51.032;6.998;2023-10-09T09:14:04;18.89;80.78
35085;SHT85;21267;51.032;6.998;2023-10-09T09:16:40;18.91;80.65
35085;SHT85;21267;51.032;6.998;2023-10-09T09:19:11;18.95;80.55
35085;SHT85;21267;51.032;6.998;2023-10-09T09:21:48;19.22;80.15
35085;SHT85;21267;51.032;6.998;2023-10-09T09:24:17;19.42;79.39
35085;SHT85;21267;51.032;6.998;2023-10-09T09:27:01;19.50;79.26
35085;SHT85;21267;51.032;6.998;2023-10-09T09:29:45;19.28;79.03
35085;SHT85;21267;51.032;6.998;2023-10-09T09:32:28;19.32;79.61
35085;SHT85;21267;51.032;6.998;2023-10-09T09:35:12;19.36;79.55
35085;SHT85;21267;51.032;6.998;2023-10-09T09:37:53;19.59;79.14
35085;SHT85;21267;51.032;6.998;2023-10-09T09:40:21;19.49;79.61
35085;SHT85;21267;51.032;6.998;2023-10-09T09:43:01;19.74;79.16
35085;SHT85;21267;51.032;6.998;2023-10-09T09:45:33;20.11;77.99
35085;SHT85;21267;51.032;6.998;2023-10-09T09:48:02;20.57;77.05
35085;SHT85;21267;51.032;6.998;2023-10-09T09:50:33;21.23;74.71
35085;SHT85;21267;51.032;6.998;2023-10-09T09:53:03;21.93;72.98
35085;SHT85;21267;51.032;6.998;2023-10-09T09:55:38;22.41;70.87
35085;SHT85;21267;51.032;6.998;2023-10-09T09:58:15;22.09;70.90
35085;SHT85;21267;51.032;6.998;2023-10-09T10:00:50;21.85;71.29
35085;SHT85;21267;51.032;6.998;2023-10-09T10:03:27;21.93;71.04
35085;SHT85;21267;51.032;6.998;2023-10-09T10:05:56;21.51;71.53
35085;SHT85;21267;51.032;6.998;2023-10-09T10:08:24;21.75;71.61
35085;SHT85;21267;51.032;6.998;2023-10-09T10:10:59;21.62;71.63
35085;SHT85;21267;51.032;6.998;2023-10-09T10:16:14;21.16;72.48
35085;SHT85;21267;51.032;6.998;2023-10-09T10:18:57;21.04;72.31
35085;SHT85;21267;51.032;6.998;2023-10-09T10:21:34;21.20;72.56
35085;SHT85;21267;51.032;6.998;2023-10-09T10:24:01;21.23;71.83
35085;SHT85;21267;51.032;6.998;2023-10-09T10:26:39;21.69;70.78
35085;SHT85;21267;51.032;6.998;2023-10-09T10:29:22;21.96;70.04
35085;SHT85;21267;51.032;6.998;2023-10-09T10:32:02;22.27;69.56
35085;SHT85;21267;51.032;6.998;2023-10-09T10:34:53;22.13;69.55
35085;SHT85;21267;51.032;6.998;2023-10-09T10:37:39;22.16;69.71
35085;SHT85;21267;51.032;6.998;2023-10-09T10:40:11;22.09;69.71
35085;SHT85;21267;51.032;6.998;2023-10-09T10:43:01;21.88;70.37
35085;SHT85;21267;51.032;6.998;2023-10-09T10:45:40;21.72;70.68
35085;SHT85;21267;51.032;6.998;2023-10-09T10:48:10;21.85;70.45
35085;SHT85;21267;51.032;6.998;2023-10-09T10:50:56;21.75;70.14
35085;SHT85;21267;51.032;6.998;2023-10-09T10:53:24;22.00;69.43
35085;SHT85;21267;51.032;6.998;2023-10-09T10:56:00;22.09;69.72
35085;SHT85;21267;51.032;6.998;2023-10-09T10:58:43;21.96;69.33
35085;SHT85;21267;51.032;6.998;2023-10-09T11:01:36;21.86;69.64
35085;SHT85;21267;51.032;6.998;2023-10-09T11:04:26;21.85;69.79
35085;SHT85;21267;51.032;6.998;2023-10-09T11:07:21;21.75;70.01
35085;SHT85;21267;51.032;6.998;2023-10-09T11:09:52;21.88;69.61
35085;SHT85;21267;51.032;6.998;2023-10-09T11:15:09;21.99;69.72
35085;SHT85;21267;51.032;6.998;2023-10-09T11:18:06;22.09;69.50
35085;SHT85;21267;51.032;6.998;2023-10-09T11:20:35;22.26;69.18
35085;SHT85;21267;51.032;6.998;2023-10-09T11:23:06;22.36;69.11
35085;SHT85;21267;51.032;6.998;2023-10-09T11:25:39;22.27;68.22
35085;SHT85;21267;51.032;6.998;2023-10-09T11:28:18;22.30;67.25
35085;SHT85;21267;51.032;6.998;2023-10-09T11:31:06;22.27;67.86
35085;SHT85;21267;51.032;6.998;2023-10-09T11:33:44;22.47;67.10
35085;SHT85;21267;51.032;6.998;2023-10-09T11:36:11;22.51;67.17
35085;SHT85;21267;51.032;6.998;2023-10-09T11:38:38;22.26;67.64
35085;SHT85;21267;51.032;6.998;2023-10-09T11:41:12;22.24;68.30
35085;SHT85;21267;51.032;6.998;2023-10-09T11:43:47;22.17;68.62
35085;SHT85;21267;51.032;6.998;2023-10-09T11:46:21;22.41;68.48
35085;SHT85;21267;51.032;6.998;2023-10-09T11:49:07;22.27;68.20
35085;SHT85;21267;51.032;6.998;2023-10-09T11:51:52;22.24;68.35
35085;SHT85;21267;51.032;6.998;2023-10-09T11:54:37;22.13;68.81
35085;SHT85;21267;51.032;6.998;2023-10-09T11:57:04;22.22;68.55
35085;SHT85;21267;51.032;6.998;2023-10-09T11:59:32;22.55;68.06
35085;SHT85;21267;51.032;6.998;2023-10-09T12:02:06;22.22;68.91
35085;SHT85;21267;51.032;6.998;2023-10-09T12:04:41;22.16;68.94
35085;SHT85;21267;51.032;6.998;2023-10-09T12:07:12;22.23;68.58
35085;SHT85;21267;51.032;6.998;2023-10-09T12:09:39;22.16;69.03
35085;SHT85;21267;51.032;6.998;2023-10-09T12:12:08;22.37;68.87
35085;SHT85;21267;51.032;6.998;2023-10-09T12:14:37;22.60;68.53
35085;SHT85;21267;51.032;6.998;2023-10-09T12:17:06;22.43;68.14
35085;SHT85;21267;51.032;6.998;2023-10-09T12:19:34;22.41;68.41
35085;SHT85;21267;51.032;6.998;2023-10-09T12:22:08;22.48;68.45
35085;SHT85;21267;51.032;6.998;2023-10-09T12:24:43;22.14;69.00
35085;SHT85;21267;51.032;6.998;2023-10-09T12:27:10;22.19;68.94
35085;SHT85;21267;51.032;6.998;2023-10-09T12:29:38;22.55;68.63
35085;SHT85;21267;51.032;6.998;2023-10-09T12:32:15;22.60;68.89
35085;SHT85;21267;51.032;6.998;2023-10-09T12:34:46;22.96;68.16
35085;SHT85;21267;51.032;6.998;2023-10-09T12:37:17;22.75;68.40
35085;SHT85;21267;51.032;6.998;2023-10-09T12:39:47;22.63;68.80
35085;SHT85;21267;51.032;6.998;2023-10-09T12:42:14;22.26;69.43
35085;SHT85;21267;51.032;6.998;2023-10-09T12:44:43;22.04;69.71
35085;SHT85;21267;51.032;6.998;2023-10-09T12:47:11;21.85;69.94
35085;SHT85;21267;51.032;6.998;2023-10-09T12:49:38;22.03;69.97
35085;SHT85;21267;51.032;6.998;2023-10-09T12:52:08;21.92;70.28
35085;SHT85;21267;51.032;6.998;2023-10-09T12:54:45;21.74;69.98
35085;SHT85;21267;51.032;6.998;2023-10-09T12:57:13;21.78;70.42
35085;SHT85;21267;51.032;6.998;2023-10-09T12:59:41;21.64;70.72
35085;SHT85;21267;51.032;6.998;2023-10-09T13:02:17;21.68;70.76
35085;SHT85;21267;51.032;6.998;2023-10-09T13:05:02;21.55;70.77
35085;SHT85;21267;51.032;6.998;2023-10-09T13:07:31;21.64;71.15
35085;SHT85;21267;51.032;6.998;2023-10-09T13:09:58;21.68;71.08
35085;SHT85;21267;51.032;6.998;2023-10-09T13:12:38;21.69;70.84
35085;SHT85;21267;51.032;6.998;2023-10-09T13:15:11;21.49;71.16
35085;SHT85;21267;51.032;6.998;2023-10-09T13:17:39;21.46;71.36
35085;SHT85;21267;51.032;6.998;2023-10-09T13:20:09;21.46;71.62
35085;SHT85;21267;51.032;6.998;2023-10-09T13:22:43;21.44;71.45
35085;SHT85;21267;51.032;6.998;2023-10-09T13:25:13;21.59;71.50
35085;SHT85;21267;51.032;6.998;2023-10-09T13:28:00;21.59;71.40
35085;SHT85;21267;51.032;6.998;2023-10-09T13:30:31;21.56;71.71
35085;SHT85;21267;51.032;6.998;2023-10-09T13:33:07;21.51;71.98
35085;SHT85;21267;51.032;6.998;2023-10-09T13:35:36;21.52;72.22
35085;SHT85;21267;51.032;6.998;2023-10-09T13:38:10;21.59;72.03
35085;SHT85;21267;51.032;6.998;2023-10-09T13:40:37;21.61;71.83
35085;SHT85;21267;51.032;6.998;2023-10-09T13:43:04;21.62;71.55
35085;SHT85;21267;51.032;6.998;2023-10-09T13:45:38;21.75;71.42
35085;SHT85;21267;51.032;6.998;2023-10-09T13:48:05;21.79;71.18
35085;SHT85;21267;51.032;6.998;2023-10-09T13:50:32;21.88;71.45
35085;SHT85;21267;51.032;6.998;2023-10-09T13:52:59;21.62;71.90
35085;SHT85;21267;51.032;6.998;2023-10-09T13:55:26;21.90;71.85
35085;SHT85;21267;51.032;6.998;2023-10-09T13:57:58;21.81;71.98
35085;SHT85;21267;51.032;6.998;2023-10-09T14:00:25;22.34;70.96
35085;SHT85;21267;51.032;6.998;2023-10-09T14:03:02;22.50;70.64
35085;SHT85;21267;51.032;6.998;2023-10-09T14:05:39;23.07;69.41
35085;SHT85;21267;51.032;6.998;2023-10-09T14:08:22;23.05;69.28
35085;SHT85;21267;51.032;6.998;2023-10-09T14:10:49;23.36;68.42
35085;SHT85;21267;51.032;6.998;2023-10-09T14:13:16;23.22;68.34
35085;SHT85;21267;51.032;6.998;2023-10-09T14:15:52;23.21;68.96
35085;SHT85;21267;51.032;6.998;2023-10-09T14:18:21;23.25;68.90
35085;SHT85;21267;51.032;6.998;2023-10-09T14:20:48;23.02;68.77
35085;SHT85;21267;51.032;6.998;2023-10-09T14:23:16;23.02;69.38
35085;SHT85;21267;51.032;6.998;2023-10-09T14:25:47;23.05;68.84
35085;SHT85;21267;51.032;6.998;2023-10-09T14:28:16;23.39;68.32
35085;SHT85;21267;51.032;6.998;2023-10-09T14:30:46;23.53;68.37
35085;SHT85;21267;51.032;6.998;2023-10-09T14:33:17;23.38;68.53
35085;SHT85;21267;51.032;6.998;2023-10-09T14:35:49;23.56;68.06
35085;SHT85;21267;51.032;6.998;2023-10-09T14:38:19;23.40;68.25
35085;SHT85;21267;51.032;6.998;2023-10-09T14:40:53;23.05;68.92
35085;SHT85;21267;51.032;6.998;2023-10-09T14:43:24;22.60;69.88
35085;SHT85;21267;51.032;6.998;2023-10-09T14:45:54;22.41;70.49
35085;SHT85;21267;51.032;6.998;2023-10-09T14:48:22;22.37;70.62
35085;SHT85;21267;51.032;6.998;2023-10-09T14:50:55;22.50;70.43
35085;SHT85;21267;51.032;6.998;2023-10-09T14:53:32;22.80;69.79
35085;SHT85;21267;51.032;6.998;2023-10-09T14:56:01;22.77;69.57
35085;SHT85;21267;51.032;6.998;2023-10-09T14:58:27;22.54;69.82
35085;SHT85;21267;51.032;6.998;2023-10-09T15:00:57;22.34;70.17
35085;SHT85;21267;51.032;6.998;2023-10-09T15:03:23;22.17;70.93
35085;SHT85;21267;51.032;6.998;2023-10-09T15:05:50;22.09;71.16
35085;SHT85;21267;51.032;6.998;2023-10-09T15:08:17;22.29;70.87
35085;SHT85;21267;51.032;6.998;2023-10-09T15:10:48;22.26;70.92
35085;SHT85;21267;51.032;6.998;2023-10-09T15:13:15;22.43;70.76
35085;SHT85;21267;51.032;6.998;2023-10-09T15:15:45;22.32;71.07
35085;SHT85;21267;51.032;6.998;2023-10-09T15:18:18;22.61;70.49
35085;SHT85;21267;51.032;6.998;2023-10-09T15:20:49;22.98;69.42
35085;SHT85;21267;51.032;6.998;2023-10-09T15:23:16;23.01;69.59
35085;SHT85;21267;51.032;6.998;2023-10-09T15:25:43;22.95;69.97
35085;SHT85;21267;51.032;6.998;2023-10-09T15:28:12;22.80;70.44
35085;SHT85;21267;51.032;6.998;2023-10-09T15:30:39;23.14;69.80
35085;SHT85;21267;51.032;6.998;2023-10-09T15:33:05;22.80;69.77
35085;SHT85;21267;51.032;6.998;2023-10-09T15:35:34;22.54;70.21
35085;SHT85;21267;51.032;6.998;2023-10-09T15:38:01;22.63;70.16
35085;SHT85;21267;51.032;6.998;2023-10-09T15:40:30;22.71;70.10
35085;SHT85;21267;51.032;6.998;2023-10-09T15:43:00;22.53;70.10
35085;SHT85;21267;51.032;6.998;2023-10-09T15:45:27;22.71;69.69
35085;SHT85;21267;51.032;6.998;2023-10-09T15:47:58;22.48;70.01
35085;SHT85;21267;51.032;6.998;2023-10-09T15:50:31;22.41;70.22
35085;SHT85;21267;51.032;6.998;2023-10-09T15:53:01;22.32;70.83
35085;SHT85;21267;51.032;6.998;2023-10-09T15:55:33;22.17;71.02
35085;SHT85;21267;51.032;6.998;2023-10-09T15:58:00;22.24;71.40
35085;SHT85;21267;51.032;6.998;2023-10-09T16:00:27;22.29;71.18
35085;SHT85;21267;51.032;6.998;2023-10-09T16:02:57;21.99;71.89
35085;SHT85;21267;51.032;6.998;2023-10-09T16:05:24;21.68;72.58
35085;SHT85;21267;51.032;6.998;2023-10-09T16:07:53;21.64;73.06
35085;SHT85;21267;51.032;6.998;2023-10-09T16:10:21;21.41;73.63
35085;SHT85;21267;51.032;6.998;2023-10-09T16:12:48;21.27;74.03
35085;SHT85;21267;51.032;6.998;2023-10-09T16:15:17;21.13;74.39
35085;SHT85;21267;51.032;6.998;2023-10-09T16:17:48;20.97;74.86
35085;SHT85;21267;51.032;6.998;2023-10-09T16:20:25;20.79;75.25
35085;SHT85;21267;51.032;6.998;2023-10-09T16:22:53;20.75;75.48
35085;SHT85;21267;51.032;6.998;2023-10-09T16:25:20;20.67;75.58
35085;SHT85;21267;51.032;6.998;2023-10-09T16:27:50;20.63;75.90
35085;SHT85;21267;51.032;6.998;2023-10-09T16:30:19;20.55;76.02
35085;SHT85;21267;51.032;6.998;2023-10-09T16:32:50;20.48;76.25
35085;SHT85;21267;51.032;6.998;2023-10-09T16:35:17;20.45;76.27